sensor_id;sensor_type;location;lat;lon;timestamp;P1;durP1;ratioP1;P2;durP2;ratioP2
41514;SDS011;27247;48.020;16.720;2023-07-09T00:04:08;8.20;;;4.95;;
41514;SDS011;27247;48.020;16.720;2023-07-09T00:08:30;9.05;;;5.63;;
41514;SDS011;27247;48.020;16.720;2023-07-09T00:12:41;6.93;;;4.97;;
41514;SDS011;27247;48.020;16.720;2023-07-09T00:16:51;9.53;;;4.60;;
41514;SDS011;27247;48.020;16.720;2023-07-09T00:21:02;13.40;;;5.57;;
41514;SDS011;27247;48.020;16.720;2023-07-09T00:25:13;6.35;;;4.75;;
41514;SDS011;27247;48.020;16.720;2023-07-09T00:29:26;7.82;;;5.03;;
41514;SDS011;27247;48.020;16.720;2023-07-09T00:33:36;7.13;;;4.20;;
41514;SDS011;27247;48.020;16.720;2023-07-09T00:37:48;7.07;;;5.07;;
41514;SDS011;27247;48.020;16.720;2023-07-09T00:41:59;5.97;;;4.33;;
41514;SDS011;27247;48.020;16.720;2023-07-09T00:50:29;7.57;;;5.80;;
41514;SDS011;27247;48.020;16.720;2023-07-09T00:54:51;7.50;;;5.55;;
41514;SDS011;27247;48.020;16.720;2023-07-09T00:59:03;6.15;;;4.57;;
41514;SDS011;27247;48.020;16.720;2023-07-09T01:07:39;10.93;;;4.88;;
41514;SDS011;27247;48.020;16.720;2023-07-09T01:11:50;9.20;;;4.88;;
41514;SDS011;27247;48.020;16.720;2023-07-09T01:16:00;9.02;;;5.47;;
41514;SDS011;27247;48.020;16.720;2023-07-09T01:20:15;8.88;;;5.65;;
41514;SDS011;27247;48.020;16.720;2023-07-09T01:29:11;8.05;;;5.45;;
41514;SDS011;27247;48.020;16.720;2023-07-09T01:33:22;9.15;;;6.05;;
41514;SDS011;27247;48.020;16.720;2023-07-09T01:37:34;7.20;;;4.78;;
41514;SDS011;27247;48.020;16.720;2023-07-09T01:41:46;7.43;;;4.88;;
41514;SDS011;27247;48.020;16.720;2023-07-09T01:45:57;9.18;;;4.75;;
41514;SDS011;27247;48.020;16.720;2023-07-09T01:50:08;8.35;;;5.25;;
41514;SDS011;27247;48.020;16.720;2023-07-09T01:54:19;7.90;;;5.45;;
41514;SDS011;27247;48.020;16.720;2023-07-09T01:58:29;9.67;;;5.90;;
41514;SDS011;27247;48.020;16.720;2023-07-09T02:02:42;6.43;;;4.93;;
41514;SDS011;27247;48.020;16.720;2023-07-09T02:06:53;6.07;;;5.45;;
41514;SDS011;27247;48.020;16.720;2023-07-09T02:11:04;6.67;;;5.43;;
41514;SDS011;27247;48.020;16.720;2023-07-09T02:15:14;8.40;;;5.15;;
41514;SDS011;27247;48.020;16.720;2023-07-09T02:19:25;7.75;;;5.50;;
41514;SDS011;27247;48.020;16.720;2023-07-09T02:23:36;12.50;;;5.50;;
41514;SDS011;27247;48.020;16.720;2023-07-09T02:27:46;10.10;;;5.45;;
41514;SDS011;27247;48.020;16.720;2023-07-09T02:31:57;8.20;;;5.40;;
41514;SDS011;27247;48.020;16.720;2023-07-09T02:36:09;8.82;;;6.13;;
41514;SDS011;27247;48.020;16.720;2023-07-09T02:40:19;10.13;;;5.77;;
41514;SDS011;27247;48.020;16.720;2023-07-09T02:44:29;7.50;;;4.90;;
41514;SDS011;27247;48.020;16.720;2023-07-09T02:48:40;8.20;;;5.87;;
41514;SDS011;27247;48.020;16.720;2023-07-09T02:52:50;10.97;;;5.97;;
41514;SDS011;27247;48.020;16.720;2023-07-09T02:57:00;10.83;;;5.97;;
41514;SDS011;27247;48.020;16.720;2023-07-09T03:01:11;10.60;;;5.57;;
41514;SDS011;27247;48.020;16.720;2023-07-09T03:05:22;9.85;;;5.15;;
41514;SDS011;27247;48.020;16.720;2023-07-09T03:09:32;7.10;;;5.20;;
41514;SDS011;27247;48.020;16.720;2023-07-09T03:13:44;6.97;;;5.50;;
41514;SDS011;27247;48.020;16.720;2023-07-09T03:17:55;11.45;;;6.00;;
41514;SDS011;27247;48.020;16.720;2023-07-09T03:22:05;9.10;;;6.00;;
41514;SDS011;27247;48.020;16.720;2023-07-09T03:26:15;8.32;;;5.55;;
41514;SDS011;27247;48.020;16.720;2023-07-09T03:30:26;10.45;;;5.65;;
41514;SDS011;27247;48.020;16.720;2023-07-09T03:34:36;7.97;;;5.37;;
41514;SDS011;27247;48.020;16.720;2023-07-09T03:38:47;7.10;;;5.32;;
41514;SDS011;27247;48.020;16.720;2023-07-09T03:42:58;8.15;;;5.38;;
41514;SDS011;27247;48.020;16.720;2023-07-09T03:47:08;7.32;;;5.35;;
41514;SDS011;27247;48.020;16.720;2023-07-09T03:51:18;6.57;;;4.70;;
41514;SDS011;27247;48.020;16.720;2023-07-09T03:55:29;7.53;;;4.90;;
41514;SDS011;27247;48.020;16.720;2023-07-09T03:59:39;5.83;;;4.87;;
41514;SDS011;27247;48.020;16.720;2023-07-09T04:03:49;8.07;;;5.50;;
41514;SDS011;27247;48.020;16.720;2023-07-09T04:08:00;8.27;;;5.10;;
41514;SDS011;27247;48.020;16.720;2023-07-09T04:12:10;9.27;;;5.80;;
41514;SDS011;27247;48.020;16.720;2023-07-09T04:16:21;9.00;;;6.28;;
41514;SDS011;27247;48.020;16.720;2023-07-09T04:20:31;8.47;;;5.60;;
41514;SDS011;27247;48.020;16.720;2023-07-09T04:24:42;10.88;;;6.22;;
41514;SDS011;27247;48.020;16.720;2023-07-09T04:28:53;11.70;;;7.38;;
41514;SDS011;27247;48.020;16.720;2023-07-09T04:33:04;13.90;;;8.60;;
41514;SDS011;27247;48.020;16.720;2023-07-09T04:37:14;12.23;;;7.50;;
41514;SDS011;27247;48.020;16.720;2023-07-09T04:41:27;11.27;;;7.57;;
41514;SDS011;27247;48.020;16.720;2023-07-09T04:45:37;11.03;;;7.10;;
41514;SDS011;27247;48.020;16.720;2023-07-09T04:49:48;13.05;;;8.18;;
41514;SDS011;27247;48.020;16.720;2023-07-09T04:53:58;10.18;;;7.35;;
41514;SDS011;27247;48.020;16.720;2023-07-09T04:58:12;11.18;;;7.88;;
41514;SDS011;27247;48.020;16.720;2023-07-09T05:02:23;9.83;;;7.77;;
41514;SDS011;27247;48.020;16.720;2023-07-09T05:06:34;8.82;;;7.18;;
41514;SDS011;27247;48.020;16.720;2023-07-09T05:10:45;9.23;;;6.72;;
41514;SDS011;27247;48.020;16.720;2023-07-09T05:14:56;12.88;;;7.22;;
41514;SDS011;27247;48.020;16.720;2023-07-09T05:19:07;10.77;;;8.53;;
41514;SDS011;27247;48.020;16.720;2023-07-09T05:23:18;12.77;;;9.50;;
41514;SDS011;27247;48.020;16.720;2023-07-09T05:27:28;11.50;;;7.70;;
41514;SDS011;27247;48.020;16.720;2023-07-09T05:31:39;10.97;;;8.70;;
41514;SDS011;27247;48.020;16.720;2023-07-09T05:35:51;10.50;;;8.38;;
41514;SDS011;27247;48.020;16.720;2023-07-09T05:40:02;10.77;;;8.77;;
41514;SDS011;27247;48.020;16.720;2023-07-09T05:44:15;13.68;;;9.93;;
41514;SDS011;27247;48.020;16.720;2023-07-09T05:48:25;14.95;;;9.65;;
41514;SDS011;27247;48.020;16.720;2023-07-09T05:52:35;10.40;;;8.33;;
41514;SDS011;27247;48.020;16.720;2023-07-09T05:56:46;13.23;;;9.13;;
41514;SDS011;27247;48.020;16.720;2023-07-09T06:00:56;12.60;;;9.47;;
41514;SDS011;27247;48.020;16.720;2023-07-09T06:05:07;11.65;;;8.68;;
41514;SDS011;27247;48.020;16.720;2023-07-09T06:09:20;13.57;;;8.80;;
41514;SDS011;27247;48.020;16.720;2023-07-09T06:13:31;10.13;;;8.47;;
41514;SDS011;27247;48.020;16.720;2023-07-09T06:17:41;14.05;;;8.10;;
41514;SDS011;27247;48.020;16.720;2023-07-09T06:21:52;11.00;;;8.03;;
41514;SDS011;27247;48.020;16.720;2023-07-09T06:26:02;10.68;;;8.05;;
41514;SDS011;27247;48.020;16.720;2023-07-09T06:30:13;12.47;;;7.17;;
41514;SDS011;27247;48.020;16.720;2023-07-09T06:34:24;15.40;;;8.15;;
41514;SDS011;27247;48.020;16.720;2023-07-09T06:38:34;13.53;;;8.20;;
41514;SDS011;27247;48.020;16.720;2023-07-09T06:42:44;9.97;;;7.50;;
41514;SDS011;27247;48.020;16.720;2023-07-09T06:46:55;13.57;;;7.87;;
41514;SDS011;27247;48.020;16.720;2023-07-09T06:51:05;13.97;;;8.37;;
41514;SDS011;27247;48.020;16.720;2023-07-09T06:55:16;8.27;;;7.38;;
41514;SDS011;27247;48.020;16.720;2023-07-09T06:59:26;7.83;;;6.77;;
41514;SDS011;27247;48.020;16.720;2023-07-09T07:03:37;14.35;;;7.40;;
41514;SDS011;27247;48.020;16.720;2023-07-09T07:07:47;12.90;;;7.07;;
41514;SDS011;27247;48.020;16.720;2023-07-09T07:11:58;9.33;;;6.70;;
41514;SDS011;27247;48.020;16.720;2023-07-09T07:16:09;9.95;;;7.13;;
41514;SDS011;27247;48.020;16.720;2023-07-09T07:20:21;10.23;;;7.30;;
41514;SDS011;27247;48.020;16.720;2023-07-09T07:24:31;9.93;;;6.50;;
41514;SDS011;27247;48.020;16.720;2023-07-09T07:28:41;9.60;;;7.20;;
41514;SDS011;27247;48.020;16.720;2023-07-09T07:32:52;11.38;;;7.32;;
41514;SDS011;27247;48.020;16.720;2023-07-09T07:37:02;11.77;;;6.87;;
41514;SDS011;27247;48.020;16.720;2023-07-09T07:41:13;9.55;;;7.80;;
41514;SDS011;27247;48.020;16.720;2023-07-09T07:45:23;8.77;;;7.00;;
41514;SDS011;27247;48.020;16.720;2023-07-09T07:49:33;10.40;;;6.80;;
41514;SDS011;27247;48.020;16.720;2023-07-09T07:53:44;10.97;;;7.23;;
41514;SDS011;27247;48.020;16.720;2023-07-09T07:57:54;13.00;;;6.57;;
41514;SDS011;27247;48.020;16.720;2023-07-09T08:02:09;10.30;;;6.40;;
41514;SDS011;27247;48.020;16.720;2023-07-09T08:06:21;12.10;;;7.32;;
41514;SDS011;27247;48.020;16.720;2023-07-09T08:10:32;13.40;;;6.80;;
41514;SDS011;27247;48.020;16.720;2023-07-09T08:14:44;10.93;;;6.27;;
41514;SDS011;27247;48.020;16.720;2023-07-09T08:18:55;8.18;;;6.18;;
41514;SDS011;27247;48.020;16.720;2023-07-09T08:23:05;14.07;;;7.18;;
41514;SDS011;27247;48.020;16.720;2023-07-09T08:27:16;11.48;;;6.60;;
41514;SDS011;27247;48.020;16.720;2023-07-09T08:31:27;8.55;;;5.72;;
41514;SDS011;27247;48.020;16.720;2023-07-09T08:35:37;8.67;;;6.10;;
41514;SDS011;27247;48.020;16.720;2023-07-09T08:39:48;9.93;;;5.87;;
41514;SDS011;27247;48.020;16.720;2023-07-09T08:44:11;9.40;;;6.20;;
41514;SDS011;27247;48.020;16.720;2023-07-09T08:48:37;10.15;;;5.93;;
41514;SDS011;27247;48.020;16.720;2023-07-09T08:52:51;7.90;;;6.00;;
41514;SDS011;27247;48.020;16.720;2023-07-09T09:01:51;11.05;;;5.68;;
41514;SDS011;27247;48.020;16.720;2023-07-09T09:06:11;8.70;;;5.88;;
41514;SDS011;27247;48.020;16.720;2023-07-09T09:10:29;10.48;;;6.03;;
41514;SDS011;27247;48.020;16.720;2023-07-09T09:14:44;8.27;;;6.50;;
41514;SDS011;27247;48.020;16.720;2023-07-09T09:19:00;7.82;;;6.30;;
41514;SDS011;27247;48.020;16.720;2023-07-09T09:23:13;9.07;;;5.70;;
41514;SDS011;27247;48.020;16.720;2023-07-09T09:27:25;7.22;;;5.75;;
41514;SDS011;27247;48.020;16.720;2023-07-09T09:31:35;10.48;;;5.65;;
41514;SDS011;27247;48.020;16.720;2023-07-09T09:35:46;7.43;;;5.18;;
41514;SDS011;27247;48.020;16.720;2023-07-09T09:39:59;7.53;;;5.60;;
41514;SDS011;27247;48.020;16.720;2023-07-09T09:44:19;9.43;;;5.77;;
41514;SDS011;27247;48.020;16.720;2023-07-09T09:48:34;9.05;;;5.95;;
41514;SDS011;27247;48.020;16.720;2023-07-09T09:52:44;6.38;;;4.68;;
41514;SDS011;27247;48.020;16.720;2023-07-09T09:56:56;8.23;;;3.90;;
41514;SDS011;27247;48.020;16.720;2023-07-09T10:01:17;6.10;;;4.07;;
41514;SDS011;27247;48.020;16.720;2023-07-09T10:05:32;7.32;;;4.80;;
41514;SDS011;27247;48.020;16.720;2023-07-09T10:09:49;6.05;;;4.80;;
41514;SDS011;27247;48.020;16.720;2023-07-09T10:14:08;7.00;;;4.90;;
41514;SDS011;27247;48.020;16.720;2023-07-09T10:18:50;7.28;;;4.28;;
41514;SDS011;27247;48.020;16.720;2023-07-09T10:23:16;5.95;;;4.95;;
41514;SDS011;27247;48.020;16.720;2023-07-09T10:28:20;8.05;;;5.28;;
41514;SDS011;27247;48.020;16.720;2023-07-09T10:41:43;4.53;;;3.67;;
41514;SDS011;27247;48.020;16.720;2023-07-09T10:45:58;5.50;;;4.32;;
41514;SDS011;27247;48.020;16.720;2023-07-09T10:50:56;7.33;;;3.87;;
41514;SDS011;27247;48.020;16.720;2023-07-09T10:59:29;6.25;;;3.97;;
41514;SDS011;27247;48.020;16.720;2023-07-09T11:03:52;3.72;;;3.42;;
41514;SDS011;27247;48.020;16.720;2023-07-09T11:08:12;6.88;;;4.03;;
41514;SDS011;27247;48.020;16.720;2023-07-09T11:12:34;7.20;;;3.88;;
41514;SDS011;27247;48.020;16.720;2023-07-09T11:16:52;5.38;;;3.83;;
41514;SDS011;27247;48.020;16.720;2023-07-09T11:21:07;6.55;;;4.65;;
41514;SDS011;27247;48.020;16.720;2023-07-09T11:30:22;5.20;;;4.10;;
41514;SDS011;27247;48.020;16.720;2023-07-09T11:34:35;8.57;;;4.93;;
41514;SDS011;27247;48.020;16.720;2023-07-09T11:38:55;5.25;;;3.72;;
41514;SDS011;27247;48.020;16.720;2023-07-09T11:43:24;6.85;;;4.35;;
41514;SDS011;27247;48.020;16.720;2023-07-09T11:47:43;5.78;;;4.07;;
41514;SDS011;27247;48.020;16.720;2023-07-09T11:51:59;5.50;;;4.55;;
41514;SDS011;27247;48.020;16.720;2023-07-09T11:56:13;8.68;;;4.15;;
41514;SDS011;27247;48.020;16.720;2023-07-09T12:00:24;4.82;;;4.07;;
41514;SDS011;27247;48.020;16.720;2023-07-09T12:04:38;7.97;;;3.88;;
41514;SDS011;27247;48.020;16.720;2023-07-09T12:08:49;6.90;;;3.43;;
41514;SDS011;27247;48.020;16.720;2023-07-09T12:13:01;5.88;;;3.83;;
41514;SDS011;27247;48.020;16.720;2023-07-09T12:17:13;4.78;;;3.38;;
41514;SDS011;27247;48.020;16.720;2023-07-09T12:21:24;3.78;;;3.40;;
41514;SDS011;27247;48.020;16.720;2023-07-09T12:25:36;4.15;;;3.50;;
41514;SDS011;27247;48.020;16.720;2023-07-09T12:29:46;4.80;;;3.73;;
41514;SDS011;27247;48.020;16.720;2023-07-09T12:33:58;4.03;;;3.13;;
41514;SDS011;27247;48.020;16.720;2023-07-09T12:38:12;5.15;;;3.17;;
41514;SDS011;27247;48.020;16.720;2023-07-09T12:42:29;4.90;;;3.28;;
41514;SDS011;27247;48.020;16.720;2023-07-09T12:46:42;3.90;;;3.40;;
41514;SDS011;27247;48.020;16.720;2023-07-09T12:50:55;7.45;;;3.88;;
41514;SDS011;27247;48.020;16.720;2023-07-09T12:55:18;5.75;;;4.18;;
41514;SDS011;27247;48.020;16.720;2023-07-09T12:59:37;4.25;;;3.55;;
41514;SDS011;27247;48.020;16.720;2023-07-09T13:03:53;4.30;;;3.38;;
41514;SDS011;27247;48.020;16.720;2023-07-09T13:08:11;5.85;;;3.67;;
41514;SDS011;27247;48.020;16.720;2023-07-09T13:12:28;8.40;;;3.67;;
41514;SDS011;27247;48.020;16.720;2023-07-09T13:16:40;6.30;;;4.05;;
41514;SDS011;27247;48.020;16.720;2023-07-09T13:20:51;6.80;;;3.30;;
41514;SDS011;27247;48.020;16.720;2023-07-09T13:25:04;4.30;;;3.65;;
41514;SDS011;27247;48.020;16.720;2023-07-09T13:29:16;6.70;;;4.18;;
41514;SDS011;27247;48.020;16.720;2023-07-09T13:33:27;4.75;;;3.78;;
41514;SDS011;27247;48.020;16.720;2023-07-09T13:37:38;5.73;;;4.13;;
41514;SDS011;27247;48.020;16.720;2023-07-09T13:41:49;7.17;;;4.07;;
41514;SDS011;27247;48.020;16.720;2023-07-09T13:46:05;4.97;;;3.83;;
41514;SDS011;27247;48.020;16.720;2023-07-09T13:50:17;5.38;;;3.95;;
41514;SDS011;27247;48.020;16.720;2023-07-09T13:54:29;4.70;;;4.03;;
41514;SDS011;27247;48.020;16.720;2023-07-09T13:58:45;6.55;;;4.10;;
41514;SDS011;27247;48.020;16.720;2023-07-09T14:02:55;5.07;;;3.80;;
41514;SDS011;27247;48.020;16.720;2023-07-09T14:07:07;5.47;;;3.90;;
41514;SDS011;27247;48.020;16.720;2023-07-09T14:11:30;4.20;;;3.80;;
41514;SDS011;27247;48.020;16.720;2023-07-09T14:15:40;7.32;;;3.83;;
41514;SDS011;27247;48.020;16.720;2023-07-09T14:19:51;5.25;;;3.95;;
41514;SDS011;27247;48.020;16.720;2023-07-09T14:24:07;4.60;;;4.07;;
41514;SDS011;27247;48.020;16.720;2023-07-09T14:28:24;4.45;;;4.05;;
41514;SDS011;27247;48.020;16.720;2023-07-09T14:36:47;6.50;;;3.65;;
41514;SDS011;27247;48.020;16.720;2023-07-09T14:40:58;4.15;;;3.75;;
41514;SDS011;27247;48.020;16.720;2023-07-09T14:45:18;4.57;;;3.65;;
41514;SDS011;27247;48.020;16.720;2023-07-09T14:49:32;4.30;;;3.35;;
41514;SDS011;27247;48.020;16.720;2023-07-09T14:53:42;6.93;;;4.40;;
41514;SDS011;27247;48.020;16.720;2023-07-09T14:57:53;5.97;;;4.05;;
41514;SDS011;27247;48.020;16.720;2023-07-09T15:02:08;5.30;;;4.13;;
41514;SDS011;27247;48.020;16.720;2023-07-09T15:06:30;7.38;;;4.70;;
41514;SDS011;27247;48.020;16.720;2023-07-09T15:10:40;7.10;;;4.33;;
41514;SDS011;27247;48.020;16.720;2023-07-09T15:14:51;5.07;;;3.55;;
41514;SDS011;27247;48.020;16.720;2023-07-09T15:19:03;3.47;;;3.03;;
41514;SDS011;27247;48.020;16.720;2023-07-09T15:23:21;3.95;;;3.45;;
41514;SDS011;27247;48.020;16.720;2023-07-09T15:27:32;3.38;;;3.08;;
41514;SDS011;27247;48.020;16.720;2023-07-09T15:31:42;4.70;;;3.60;;
41514;SDS011;27247;48.020;16.720;2023-07-09T15:35:53;5.53;;;3.43;;
41514;SDS011;27247;48.020;16.720;2023-07-09T15:40:03;5.60;;;4.00;;
41514;SDS011;27247;48.020;16.720;2023-07-09T15:44:23;4.03;;;3.63;;
41514;SDS011;27247;48.020;16.720;2023-07-09T15:48:34;4.18;;;3.42;;
41514;SDS011;27247;48.020;16.720;2023-07-09T15:52:46;3.53;;;3.20;;
41514;SDS011;27247;48.020;16.720;2023-07-09T15:56:57;3.95;;;3.55;;
41514;SDS011;27247;48.020;16.720;2023-07-09T16:01:11;4.20;;;3.17;;
41514;SDS011;27247;48.020;16.720;2023-07-09T16:05:25;4.83;;;4.07;;
41514;SDS011;27247;48.020;16.720;2023-07-09T16:09:38;4.40;;;3.40;;
41514;SDS011;27247;48.020;16.720;2023-07-09T16:13:49;4.72;;;3.28;;
41514;SDS011;27247;48.020;16.720;2023-07-09T16:18:01;3.60;;;3.30;;
41514;SDS011;27247;48.020;16.720;2023-07-09T16:22:14;4.68;;;3.20;;
41514;SDS011;27247;48.020;16.720;2023-07-09T16:26:27;3.88;;;3.28;;
41514;SDS011;27247;48.020;16.720;2023-07-09T16:30:38;5.10;;;3.30;;
41514;SDS011;27247;48.020;16.720;2023-07-09T16:34:48;9.07;;;4.00;;
41514;SDS011;27247;48.020;16.720;2023-07-09T16:38:58;6.27;;;3.77;;
41514;SDS011;27247;48.020;16.720;2023-07-09T16:43:17;4.50;;;3.90;;
41514;SDS011;27247;48.020;16.720;2023-07-09T16:47:28;4.15;;;3.75;;
41514;SDS011;27247;48.020;16.720;2023-07-09T16:51:40;4.57;;;3.60;;
41514;SDS011;27247;48.020;16.720;2023-07-09T16:55:50;6.03;;;3.87;;
41514;SDS011;27247;48.020;16.720;2023-07-09T17:04:43;4.68;;;3.40;;
41514;SDS011;27247;48.020;16.720;2023-07-09T17:08:53;5.30;;;3.60;;
41514;SDS011;27247;48.020;16.720;2023-07-09T17:13:03;5.03;;;3.57;;
41514;SDS011;27247;48.020;16.720;2023-07-09T17:17:15;5.85;;;3.38;;
41514;SDS011;27247;48.020;16.720;2023-07-09T17:21:29;6.63;;;4.13;;
41514;SDS011;27247;48.020;16.720;2023-07-09T17:25:40;4.43;;;4.03;;
41514;SDS011;27247;48.020;16.720;2023-07-09T17:29:50;7.20;;;3.78;;
41514;SDS011;27247;48.020;16.720;2023-07-09T17:34:01;7.90;;;4.27;;
41514;SDS011;27247;48.020;16.720;2023-07-09T17:38:13;8.17;;;4.57;;
41514;SDS011;27247;48.020;16.720;2023-07-09T17:42:31;5.07;;;4.25;;
41514;SDS011;27247;48.020;16.720;2023-07-09T17:46:41;8.40;;;4.30;;
41514;SDS011;27247;48.020;16.720;2023-07-09T17:50:52;6.30;;;4.60;;
41514;SDS011;27247;48.020;16.720;2023-07-09T17:55:03;4.80;;;4.28;;
41514;SDS011;27247;48.020;16.720;2023-07-09T17:59:17;5.80;;;4.40;;
41514;SDS011;27247;48.020;16.720;2023-07-09T18:03:31;6.53;;;5.03;;
41514;SDS011;27247;48.020;16.720;2023-07-09T18:07:41;8.07;;;5.30;;
41514;SDS011;27247;48.020;16.720;2023-07-09T18:11:52;4.72;;;3.97;;
41514;SDS011;27247;48.020;16.720;2023-07-09T18:16:05;8.30;;;4.68;;
41514;SDS011;27247;48.020;16.720;2023-07-09T18:20:16;33.33;;;6.80;;
41514;SDS011;27247;48.020;16.720;2023-07-09T18:24:28;17.67;;;5.32;;
41514;SDS011;27247;48.020;16.720;2023-07-09T18:28:38;27.63;;;5.90;;
41514;SDS011;27247;48.020;16.720;2023-07-09T18:32:53;16.15;;;5.28;;
41514;SDS011;27247;48.020;16.720;2023-07-09T18:37:05;7.47;;;4.45;;
41514;SDS011;27247;48.020;16.720;2023-07-09T18:41:17;7.20;;;4.97;;
41514;SDS011;27247;48.020;16.720;2023-07-09T18:45:28;7.78;;;4.43;;
41514;SDS011;27247;48.020;16.720;2023-07-09T18:49:39;10.18;;;5.30;;
41514;SDS011;27247;48.020;16.720;2023-07-09T18:53:49;6.45;;;5.22;;
41514;SDS011;27247;48.020;16.720;2023-07-09T18:58:00;5.57;;;4.30;;
41514;SDS011;27247;48.020;16.720;2023-07-09T19:02:13;7.70;;;4.47;;
41514;SDS011;27247;48.020;16.720;2023-07-09T19:06:24;6.47;;;4.90;;
41514;SDS011;27247;48.020;16.720;2023-07-09T19:10:34;11.40;;;5.10;;
41514;SDS011;27247;48.020;16.720;2023-07-09T19:14:44;9.45;;;5.05;;
41514;SDS011;27247;48.020;16.720;2023-07-09T19:18:55;9.38;;;5.00;;
41514;SDS011;27247;48.020;16.720;2023-07-09T19:23:07;6.80;;;4.68;;
41514;SDS011;27247;48.020;16.720;2023-07-09T19:27:23;8.90;;;4.40;;
41514;SDS011;27247;48.020;16.720;2023-07-09T19:31:33;6.80;;;4.55;;
41514;SDS011;27247;48.020;16.720;2023-07-09T19:35:44;9.23;;;4.82;;
41514;SDS011;27247;48.020;16.720;2023-07-09T19:39:55;6.97;;;5.00;;
41514;SDS011;27247;48.020;16.720;2023-07-09T19:44:05;8.95;;;4.60;;
41514;SDS011;27247;48.020;16.720;2023-07-09T19:48:23;10.83;;;5.33;;
41514;SDS011;27247;48.020;16.720;2023-07-09T19:52:37;6.32;;;4.78;;
41514;SDS011;27247;48.020;16.720;2023-07-09T19:56:47;6.78;;;4.57;;
41514;SDS011;27247;48.020;16.720;2023-07-09T20:00:58;7.95;;;5.32;;
41514;SDS011;27247;48.020;16.720;2023-07-09T20:05:14;6.15;;;5.20;;
41514;SDS011;27247;48.020;16.720;2023-07-09T20:09:30;9.18;;;5.03;;
41514;SDS011;27247;48.020;16.720;2023-07-09T20:13:41;7.45;;;5.03;;
41514;SDS011;27247;48.020;16.720;2023-07-09T20:17:53;6.75;;;4.60;;
41514;SDS011;27247;48.020;16.720;2023-07-09T20:22:08;7.57;;;5.28;;
41514;SDS011;27247;48.020;16.720;2023-07-09T20:26:21;9.50;;;5.35;;
41514;SDS011;27247;48.020;16.720;2023-07-09T20:30:31;5.93;;;5.33;;
41514;SDS011;27247;48.020;16.720;2023-07-09T20:34:43;7.85;;;5.03;;
41514;SDS011;27247;48.020;16.720;2023-07-09T20:43:22;6.55;;;4.95;;
41514;SDS011;27247;48.020;16.720;2023-07-09T20:47:36;7.78;;;5.07;;
41514;SDS011;27247;48.020;16.720;2023-07-09T20:51:46;7.38;;;4.97;;
41514;SDS011;27247;48.020;16.720;2023-07-09T20:55:57;7.53;;;5.35;;
41514;SDS011;27247;48.020;16.720;2023-07-09T21:00:11;7.10;;;5.03;;
41514;SDS011;27247;48.020;16.720;2023-07-09T21:04:24;8.35;;;5.00;;
41514;SDS011;27247;48.020;16.720;2023-07-09T21:08:35;6.63;;;5.15;;
41514;SDS011;27247;48.020;16.720;2023-07-09T21:12:45;6.43;;;5.10;;
41514;SDS011;27247;48.020;16.720;2023-07-09T21:16:56;7.47;;;5.05;;
41514;SDS011;27247;48.020;16.720;2023-07-09T21:21:07;5.80;;;4.80;;
41514;SDS011;27247;48.020;16.720;2023-07-09T21:25:20;9.35;;;5.43;;
41514;SDS011;27247;48.020;16.720;2023-07-09T21:29:33;5.07;;;4.30;;
41514;SDS011;27247;48.020;16.720;2023-07-09T21:33:43;9.40;;;5.43;;
41514;SDS011;27247;48.020;16.720;2023-07-09T21:37:55;7.32;;;5.22;;
41514;SDS011;27247;48.020;16.720;2023-07-09T21:42:06;5.55;;;4.65;;
41514;SDS011;27247;48.020;16.720;2023-07-09T21:46:25;8.43;;;5.70;;
41514;SDS011;27247;48.020;16.720;2023-07-09T21:50:37;6.05;;;4.72;;
41514;SDS011;27247;48.020;16.720;2023-07-09T21:54:48;9.38;;;5.43;;
41514;SDS011;27247;48.020;16.720;2023-07-09T21:59:02;7.68;;;5.13;;
41514;SDS011;27247;48.020;16.720;2023-07-09T22:03:13;8.68;;;5.95;;
41514;SDS011;27247;48.020;16.720;2023-07-09T22:07:24;6.75;;;4.82;;
41514;SDS011;27247;48.020;16.720;2023-07-09T22:11:35;7.63;;;5.50;;
41514;SDS011;27247;48.020;16.720;2023-07-09T22:15:46;6.18;;;4.63;;
41514;SDS011;27247;48.020;16.720;2023-07-09T22:19:58;5.90;;;4.85;;
41514;SDS011;27247;48.020;16.720;2023-07-09T22:24:16;9.27;;;6.07;;
41514;SDS011;27247;48.020;16.720;2023-07-09T22:28:28;8.15;;;5.50;;
41514;SDS011;27247;48.020;16.720;2023-07-09T22:32:39;7.93;;;5.32;;
41514;SDS011;27247;48.020;16.720;2023-07-09T22:36:50;8.82;;;5.53;;
41514;SDS011;27247;48.020;16.720;2023-07-09T22:41:01;10.90;;;5.65;;
41514;SDS011;27247;48.020;16.720;2023-07-09T22:45:11;6.87;;;5.40;;
41514;SDS011;27247;48.020;16.720;2023-07-09T22:49:21;6.88;;;5.55;;
41514;SDS011;27247;48.020;16.720;2023-07-09T22:53:35;7.30;;;5.22;;
41514;SDS011;27247;48.020;16.720;2023-07-09T22:57:45;8.15;;;5.43;;
41514;SDS011;27247;48.020;16.720;2023-07-09T23:01:56;6.40;;;5.23;;
41514;SDS011;27247;48.020;16.720;2023-07-09T23:06:10;6.68;;;5.13;;
41514;SDS011;27247;48.020;16.720;2023-07-09T23:10:24;6.15;;;5.07;;
41514;SDS011;27247;48.020;16.720;2023-07-09T23:14:34;7.38;;;5.70;;
41514;SDS011;27247;48.020;16.720;2023-07-09T23:18:45;6.80;;;5.17;;
41514;SDS011;27247;48.020;16.720;2023-07-09T23:22:56;9.02;;;5.45;;
41514;SDS011;27247;48.020;16.720;2023-07-09T23:27:15;6.40;;;5.60;;
41514;SDS011;27247;48.020;16.720;2023-07-09T23:31:28;6.40;;;5.55;;
41514;SDS011;27247;48.020;16.720;2023-07-09T23:35:40;8.13;;;5.78;;
41514;SDS011;27247;48.020;16.720;2023-07-09T23:39:50;7.55;;;5.82;;
41514;SDS011;27247;48.020;16.720;2023-07-09T23:44:01;8.00;;;5.60;;
41514;SDS011;27247;48.020;16.720;2023-07-09T23:48:18;7.65;;;5.75;;
41514;SDS011;27247;48.020;16.720;2023-07-09T23:52:32;7.15;;;5.85;;
41514;SDS011;27247;48.020;16.720;2023-07-09T23:56:44;6.83;;;5.97;;
